createdAt,value
2023-03-13T00:01:55.578Z,47.20
2023-03-13T00:04:28.995Z,40.33
2023-03-13T00:06:59.433Z,39.00
2023-03-13T00:09:29.824Z,41.17
2023-03-13T00:12:00.444Z,41.05
2023-03-13T00:14:30.977Z,39.50
2023-03-13T00:17:01.732Z,38.90
2023-03-13T00:19:34.336Z,39.05
2023-03-13T00:22:04.596Z,41.67
2023-03-13T00:24:35.638Z,40.50
2023-03-13T00:27:06.978Z,37.97
2023-03-13T00:29:38.810Z,39.25
2023-03-13T00:32:09.525Z,37.05
2023-03-13T00:34:39.844Z,39.38
2023-03-13T00:37:10.462Z,38.38
2023-03-13T00:39:40.702Z,38.53
2023-03-13T00:42:13.993Z,38.58
2023-03-13T00:44:45.977Z,38.67
2023-03-13T00:47:16.432Z,40.15
2023-03-13T00:49:46.705Z,42.25
2023-03-13T00:52:17.857Z,45.88
2023-03-13T00:54:48.587Z,44.65
2023-03-13T00:57:19.096Z,40.75
2023-03-13T00:59:49.792Z,38.45
2023-03-13T01:02:20.522Z,38.03
2023-03-13T01:04:52.505Z,41.05
2023-03-13T01:07:23.051Z,39.55
2023-03-13T01:09:53.684Z,41.08
2023-03-13T01:12:24.231Z,39.13
2023-03-13T01:14:54.962Z,39.50
2023-03-13T01:17:25.378Z,39.25
2023-03-13T01:20:00.118Z,40.38
2023-03-13T01:22:30.372Z,38.58
2023-03-13T01:25:02.142Z,47.78
2023-03-13T01:27:33.054Z,46.15
2023-03-13T01:30:04.795Z,47.42
2023-03-13T01:32:36.215Z,39.47
2023-03-13T01:35:06.585Z,38.35
2023-03-13T01:37:38.601Z,39.97
2023-03-13T01:40:09.347Z,40.70
2023-03-13T01:42:59.281Z,40.58
2023-03-13T01:45:49.987Z,39.53
2023-03-13T01:48:23.190Z,39.83
2023-03-13T01:50:53.775Z,40.25
2023-03-13T01:53:33.236Z,40.65
2023-03-13T01:56:08.822Z,39.28
2023-03-13T01:58:40.190Z,37.65
2023-03-13T02:01:11.229Z,36.95
2023-03-13T02:03:41.889Z,36.45
2023-03-13T02:06:12.747Z,36.53
2023-03-13T02:08:50.883Z,36.55
2023-03-13T02:11:40.964Z,35.63
2023-03-13T02:14:12.692Z,36.00
2023-03-13T02:16:44.632Z,35.05
2023-03-13T02:19:22.760Z,36.10
2023-03-13T02:21:59.027Z,36.88
2023-03-13T02:24:35.688Z,35.67
2023-03-13T02:27:06.533Z,33.28
2023-03-13T02:29:40.675Z,33.28
2023-03-13T02:32:11.252Z,34.00
2023-03-13T02:34:43.103Z,34.45
2023-03-13T02:37:17.214Z,33.53
2023-03-13T02:39:50.756Z,33.08
2023-03-13T02:42:24.446Z,31.10
2023-03-13T02:44:55.093Z,30.23
2023-03-13T02:47:27.358Z,29.65
2023-03-13T02:49:58.751Z,29.98
2023-03-13T02:52:31.013Z,28.67
2023-03-13T02:55:04.400Z,28.10
2023-03-13T02:57:45.819Z,28.17
2023-03-13T03:00:18.649Z,28.05
2023-03-13T03:02:49.841Z,27.77
2023-03-13T03:05:20.261Z,25.88
2023-03-13T03:07:51.861Z,26.90
2023-03-13T03:10:27.350Z,24.65
2023-03-13T03:12:57.607Z,26.15
2023-03-13T03:15:28.626Z,24.42
2023-03-13T03:17:59.608Z,24.95
2023-03-13T03:20:30.329Z,24.65
2023-03-13T03:23:00.816Z,24.80
2023-03-13T03:25:31.438Z,26.15
2023-03-13T03:28:03.828Z,33.53
2023-03-13T03:30:35.475Z,30.35
2023-03-13T03:33:08.548Z,30.48
2023-03-13T03:35:42.374Z,25.98
2023-03-13T03:38:13.023Z,29.27
2023-03-13T03:40:43.554Z,29.35
2023-03-13T03:43:13.947Z,31.65
2023-03-13T03:45:44.825Z,33.38
2023-03-13T03:48:15.434Z,28.80
2023-03-13T03:50:46.177Z,29.90
2023-03-13T03:53:19.562Z,25.10
2023-03-13T03:55:49.855Z,25.67
2023-03-13T03:58:23.349Z,25.85
2023-03-13T04:01:13.832Z,27.52
2023-03-13T04:03:44.749Z,25.45
2023-03-13T04:06:16.771Z,28.02
2023-03-13T04:08:48.721Z,28.20
2023-03-13T04:11:24.644Z,26.27
2023-03-13T04:13:58.234Z,26.08
2023-03-13T04:16:31.345Z,25.73
2023-03-13T04:19:03.162Z,26.13
2023-03-13T04:21:34.215Z,27.02
2023-03-13T04:24:11.179Z,26.95
2023-03-13T04:26:44.034Z,27.55
2023-03-13T04:29:16.062Z,26.98
2023-03-13T04:31:55.050Z,28.08
2023-03-13T04:34:44.862Z,29.13
2023-03-13T04:37:34.982Z,29.35
2023-03-13T04:40:17.486Z,35.53
2023-03-13T04:43:12.256Z,28.23
2023-03-13T04:46:02.156Z,29.40
2023-03-13T04:48:46.873Z,26.10
2023-03-13T04:51:38.608Z,25.90
2023-03-13T04:54:32.258Z,25.30
2023-03-13T04:57:22.195Z,25.08
2023-03-13T05:00:15.070Z,25.80
2023-03-13T05:02:59.121Z,26.20
2023-03-13T05:05:38.578Z,26.30
2023-03-13T05:08:31.497Z,27.95
2023-03-13T05:11:25.116Z,27.70
2023-03-13T05:14:12.959Z,25.98
2023-03-13T05:17:00.126Z,25.15
2023-03-13T05:19:49.883Z,26.85
2023-03-13T05:22:40.254Z,26.15
2023-03-13T05:25:30.270Z,26.65
2023-03-13T05:28:17.850Z,25.40
2023-03-13T05:31:03.634Z,26.05
2023-03-13T05:33:53.673Z,26.55
2023-03-13T05:36:43.677Z,24.42
2023-03-13T05:39:35.098Z,25.67
2023-03-13T05:42:25.154Z,26.50
2023-03-13T05:45:06.123Z,25.80
2023-03-13T05:47:59.099Z,25.98
2023-03-13T05:50:42.318Z,26.05
2023-03-13T05:53:35.103Z,26.58
2023-03-13T05:56:14.021Z,25.58
2023-03-13T05:59:04.108Z,26.05
2023-03-13T06:01:53.909Z,25.95
2023-03-13T06:04:31.746Z,25.33
2023-03-13T06:07:03.205Z,25.40
2023-03-13T06:09:34.033Z,26.48
2023-03-13T06:12:05.675Z,26.10
2023-03-13T06:14:36.563Z,25.77
2023-03-13T06:17:27.071Z,25.35
2023-03-13T06:20:05.829Z,26.20
2023-03-13T06:22:36.694Z,25.83
2023-03-13T06:25:07.688Z,27.23
2023-03-13T06:27:40.223Z,26.05
2023-03-13T06:30:12.123Z,25.67
2023-03-13T06:32:42.804Z,26.85
2023-03-13T06:35:16.545Z,25.63
2023-03-13T06:37:46.700Z,25.05
2023-03-13T06:40:18.672Z,23.92
2023-03-13T06:42:53.034Z,25.08
2023-03-13T06:45:24.308Z,26.30
2023-03-13T06:47:55.206Z,25.85
2023-03-13T06:50:28.982Z,25.73
2023-03-13T06:53:00.637Z,25.83
2023-03-13T06:55:33.450Z,26.35
2023-03-13T06:58:03.906Z,26.23
2023-03-13T07:00:35.941Z,26.05
2023-03-13T07:03:08.233Z,25.10
2023-03-13T07:05:39.877Z,24.30
2023-03-13T07:08:10.398Z,25.73
2023-03-13T07:10:42.077Z,24.50
2023-03-13T07:13:16.204Z,25.40
2023-03-13T07:15:46.899Z,24.60
2023-03-13T07:18:20.821Z,25.17
2023-03-13T07:20:58.956Z,25.83
2023-03-13T07:23:34.510Z,24.50
2023-03-13T07:26:06.824Z,23.42
2023-03-13T07:28:38.089Z,28.67
2023-03-13T07:31:16.939Z,28.92
2023-03-13T07:33:49.837Z,25.15
2023-03-13T07:36:19.916Z,25.55
2023-03-13T07:38:53.120Z,23.88
2023-03-13T07:41:23.544Z,25.42
2023-03-13T07:43:54.879Z,24.65
2023-03-13T07:46:26.056Z,24.88
2023-03-13T07:48:57.050Z,24.60
2023-03-13T07:51:42.577Z,23.77
2023-03-13T07:54:14.801Z,23.83
2023-03-13T07:56:45.426Z,23.67
2023-03-13T07:59:16.586Z,23.90
2023-03-13T08:01:48.451Z,22.48
2023-03-13T08:04:21.575Z,22.95
2023-03-13T08:06:54.334Z,23.55
2023-03-13T08:09:29.800Z,24.20
2023-03-13T08:12:03.305Z,23.23
2023-03-13T08:14:40.946Z,23.05
2023-03-13T08:20:28.225Z,22.48
2023-03-13T08:26:11.853Z,23.80
2023-03-13T08:28:47.648Z,23.70
2023-03-13T08:31:22.308Z,22.55
2023-03-13T08:33:53.481Z,23.48
2023-03-13T08:36:29.687Z,22.95
2023-03-13T08:39:03.649Z,23.27
2023-03-13T08:41:39.246Z,22.55
2023-03-13T08:44:29.703Z,22.95
2023-03-13T08:47:01.538Z,23.60
2023-03-13T08:49:32.524Z,23.58
2023-03-13T08:52:03.677Z,23.17
2023-03-13T08:54:34.156Z,23.05
2023-03-13T08:57:07.676Z,22.80
2023-03-13T08:59:38.209Z,23.20
2023-03-13T09:02:08.708Z,23.98
2023-03-13T09:04:42.592Z,24.20
2023-03-13T09:07:14.683Z,23.33
2023-03-13T09:09:48.515Z,23.23
2023-03-13T09:12:30.485Z,22.38
2023-03-13T09:15:04.563Z,22.25
2023-03-13T09:17:35.117Z,22.75
2023-03-13T09:20:06.591Z,23.45
2023-03-13T09:22:37.488Z,22.83
2023-03-13T09:25:11.464Z,23.75
2023-03-13T09:27:43.851Z,22.23
2023-03-13T09:30:14.408Z,22.85
2023-03-13T09:32:48.612Z,21.75
2023-03-13T09:35:19.170Z,22.95
2023-03-13T09:37:51.094Z,21.98
2023-03-13T09:40:23.339Z,23.90
2023-03-13T09:42:57.374Z,22.27
2023-03-13T09:45:37.350Z,24.63
2023-03-13T09:48:09.536Z,23.83
2023-03-13T09:50:49.135Z,22.90
2023-03-13T09:53:31.003Z,22.55
2023-03-13T09:56:01.515Z,23.23
2023-03-13T09:58:33.253Z,21.52
2023-03-13T10:01:06.837Z,21.02
2023-03-13T10:03:58.311Z,22.40
2023-03-13T10:06:31.568Z,21.67
2023-03-13T10:09:02.959Z,22.90
2023-03-13T10:11:40.776Z,21.73
2023-03-13T10:14:24.123Z,23.15
2023-03-13T10:17:10.190Z,24.15
2023-03-13T10:19:51.697Z,24.67
2023-03-13T10:22:25.946Z,24.88
2023-03-13T10:25:02.079Z,24.20
2023-03-13T10:27:33.435Z,23.73
2023-03-13T10:30:07.917Z,25.65
2023-03-13T10:32:40.000Z,29.58
2023-03-13T10:35:12.490Z,24.13
2023-03-13T10:37:49.875Z,26.25
2023-03-13T10:40:28.424Z,26.80
2023-03-13T10:43:13.141Z,26.27
2023-03-13T10:45:43.358Z,25.35
2023-03-13T10:48:33.490Z,24.73
2023-03-13T10:51:07.348Z,24.92
2023-03-13T10:53:39.994Z,26.08
2023-03-13T10:56:15.059Z,23.58
2023-03-13T10:58:52.251Z,26.48
2023-03-13T11:01:26.203Z,38.33
2023-03-13T11:04:00.219Z,25.88
2023-03-13T11:06:39.395Z,28.45
2023-03-13T11:09:23.300Z,26.30
2023-03-13T11:11:58.971Z,26.58
2023-03-13T11:14:29.210Z,25.00
2023-03-13T11:17:21.030Z,24.58
2023-03-13T11:20:10.850Z,22.95
2023-03-13T11:22:47.352Z,20.67
2023-03-13T11:25:22.904Z,19.65
2023-03-13T11:28:15.701Z,18.88
2023-03-13T11:31:05.745Z,19.88
2023-03-13T11:33:53.089Z,19.23
2023-03-13T11:36:41.767Z,16.83
2023-03-13T11:39:29.469Z,17.50
2023-03-13T11:42:07.389Z,16.50
2023-03-13T11:45:00.442Z,15.40
2023-03-13T11:47:39.612Z,15.77
2023-03-13T11:50:32.100Z,15.40
2023-03-13T11:53:12.289Z,15.25
2023-03-13T11:56:02.250Z,15.45
2023-03-13T11:58:53.299Z,15.90
2023-03-13T12:01:27.533Z,17.02
2023-03-13T12:04:02.424Z,16.30
2023-03-13T12:06:35.637Z,20.08
2023-03-13T12:09:20.756Z,14.98
2023-03-13T12:12:01.071Z,14.70
2023-03-13T12:14:51.858Z,14.60
2023-03-13T12:17:38.796Z,15.02
2023-03-13T12:20:36.109Z,14.13
2023-03-13T12:23:29.256Z,13.73
2023-03-13T12:26:20.112Z,14.10
2023-03-13T12:29:15.934Z,14.63
2023-03-13T12:31:59.747Z,16.58
2023-03-13T12:34:46.061Z,17.60
2023-03-13T12:37:36.487Z,16.20
2023-03-13T12:40:14.583Z,16.15
2023-03-13T12:43:06.749Z,17.17
2023-03-13T12:45:41.680Z,16.77
2023-03-13T12:48:33.432Z,15.38
2023-03-13T12:51:21.112Z,16.52
2023-03-13T12:54:15.500Z,15.43
2023-03-13T12:57:07.206Z,15.23
2023-03-13T12:59:47.717Z,15.32
2023-03-13T13:02:26.376Z,15.77
2023-03-13T13:04:59.680Z,17.27
2023-03-13T13:07:38.011Z,18.52
2023-03-13T13:10:28.226Z,19.65
2023-03-13T13:13:19.903Z,17.38
2023-03-13T13:16:12.913Z,17.67
2023-03-13T13:18:47.857Z,17.63
2023-03-13T13:21:46.599Z,16.25
2023-03-13T13:24:36.494Z,15.57
2023-03-13T13:27:08.032Z,15.90
2023-03-13T13:29:56.382Z,16.88
2023-03-13T13:32:37.342Z,15.93
2023-03-13T13:35:09.314Z,17.20
2023-03-13T13:37:41.283Z,17.30
2023-03-13T13:40:31.123Z,16.00
2023-03-13T13:43:20.785Z,16.95
2023-03-13T13:46:04.701Z,16.13
2023-03-13T13:48:37.910Z,16.15
2023-03-13T13:51:26.995Z,16.67
2023-03-13T13:53:59.839Z,18.27
2023-03-13T13:56:50.819Z,18.65
2023-03-13T13:59:35.884Z,18.33
2023-03-13T14:02:24.386Z,16.65
2023-03-13T14:04:56.772Z,16.80
2023-03-13T14:07:46.862Z,17.08
2023-03-13T14:10:36.607Z,16.63
2023-03-13T14:13:18.329Z,17.50
2023-03-13T14:15:54.292Z,17.08
2023-03-13T14:18:32.818Z,18.55
2023-03-13T14:21:06.326Z,17.85
2023-03-13T14:23:47.847Z,19.15
2023-03-13T14:26:36.492Z,18.70
2023-03-13T14:29:08.203Z,20.15
2023-03-13T14:31:42.318Z,20.75
2023-03-13T14:34:18.683Z,21.67
2023-03-13T14:37:14.922Z,32.65
2023-03-13T14:39:50.425Z,23.13
2023-03-13T14:42:22.232Z,52.92
2023-03-13T14:45:02.752Z,24.05
2023-03-13T14:47:33.935Z,24.48
2023-03-13T14:50:08.130Z,24.77
2023-03-13T14:52:41.430Z,25.42
2023-03-13T14:55:33.687Z,24.38
2023-03-13T14:58:14.378Z,24.33
2023-03-13T15:00:49.469Z,23.92
2023-03-13T15:03:32.192Z,22.40
2023-03-13T15:06:21.964Z,20.83
2023-03-13T15:09:13.290Z,27.92
2023-03-13T15:11:55.959Z,26.67
2023-03-13T15:14:55.973Z,20.60
2023-03-13T15:17:32.553Z,20.45
2023-03-13T15:20:02.824Z,20.45
2023-03-13T15:22:35.731Z,19.25
2023-03-13T15:25:21.653Z,18.73
2023-03-13T15:27:54.488Z,18.65
2023-03-13T15:30:25.683Z,18.23
2023-03-13T15:32:57.767Z,17.77
2023-03-13T15:35:31.108Z,18.38
2023-03-13T15:38:07.627Z,17.95
2023-03-13T15:40:41.082Z,18.02
2023-03-13T15:43:13.757Z,16.90
2023-03-13T15:45:45.530Z,16.45
2023-03-13T15:48:26.458Z,17.25
2023-03-13T15:51:02.430Z,16.58
2023-03-13T15:53:36.892Z,16.98
2023-03-13T15:56:14.522Z,16.70
2023-03-13T15:58:44.981Z,16.48
2023-03-13T16:01:17.209Z,16.48
2023-03-13T16:04:02.936Z,16.35
2023-03-13T16:06:34.000Z,15.98
2023-03-13T16:09:08.090Z,16.10
2023-03-13T16:11:46.414Z,16.45
2023-03-13T16:14:17.609Z,17.23
2023-03-13T16:16:50.469Z,15.98
2023-03-13T16:19:23.333Z,16.65
2023-03-13T16:21:54.806Z,17.60
2023-03-13T16:24:27.282Z,17.38
2023-03-13T16:26:59.644Z,16.70
2023-03-13T16:29:29.961Z,17.73
2023-03-13T16:32:00.598Z,15.63
2023-03-13T16:34:34.198Z,16.30
2023-03-13T16:37:14.290Z,68.95
2023-03-13T16:39:45.603Z,23.08
2023-03-13T16:42:19.238Z,27.80
2023-03-13T16:44:49.658Z,17.17
2023-03-13T16:47:30.373Z,17.65
2023-03-13T16:50:00.854Z,18.23
2023-03-13T16:52:31.683Z,18.23
2023-03-13T16:55:03.397Z,17.95
2023-03-13T16:57:35.373Z,17.85
2023-03-13T17:00:14.433Z,17.92
2023-03-13T17:02:45.994Z,18.40
2023-03-13T17:05:19.795Z,18.20
2023-03-13T17:07:52.725Z,18.38
2023-03-13T17:10:26.773Z,17.58
2023-03-13T17:12:58.799Z,18.20
2023-03-13T17:15:31.326Z,16.73
2023-03-13T17:18:03.006Z,16.23
2023-03-13T17:20:33.831Z,16.75
2023-03-13T17:23:26.120Z,17.00
2023-03-13T17:25:59.560Z,16.52
2023-03-13T17:28:30.993Z,17.35
2023-03-13T17:31:01.558Z,17.52
2023-03-13T17:33:33.653Z,16.77
2023-03-13T17:36:06.454Z,17.33
2023-03-13T17:38:38.739Z,17.90
2023-03-13T17:41:24.831Z,17.60
2023-03-13T17:43:57.015Z,18.05
2023-03-13T17:46:44.775Z,18.27
2023-03-13T17:49:15.979Z,17.38
2023-03-13T17:51:48.848Z,17.98
2023-03-13T17:54:22.211Z,17.85
2023-03-13T17:56:52.581Z,18.33
2023-03-13T17:59:24.623Z,17.48
2023-03-13T18:01:58.500Z,18.30
2023-03-13T18:04:30.180Z,18.40
2023-03-13T18:07:00.738Z,18.45
2023-03-13T18:09:32.941Z,17.98
2023-03-13T18:12:04.026Z,17.10
2023-03-13T18:14:41.031Z,18.55
2023-03-13T18:17:30.667Z,18.20
2023-03-13T18:20:02.585Z,17.05
2023-03-13T18:22:39.359Z,17.98
2023-03-13T18:25:09.966Z,18.05
2023-03-13T18:27:40.195Z,18.33
2023-03-13T18:30:18.426Z,18.83
2023-03-13T18:32:49.677Z,19.08
2023-03-13T18:35:21.469Z,17.63
2023-03-13T18:37:54.181Z,18.40
2023-03-13T18:40:26.576Z,18.52
2023-03-13T18:42:57.077Z,19.15
2023-03-13T18:45:28.352Z,19.67
2023-03-13T18:47:58.675Z,18.00
2023-03-13T18:53:17.836Z,18.55
2023-03-13T18:55:48.187Z,18.13
2023-03-13T18:58:21.688Z,18.42
2023-03-13T19:00:53.213Z,18.38
2023-03-13T19:03:25.370Z,19.13
2023-03-13T19:05:55.647Z,19.23
2023-03-13T19:08:34.791Z,19.90
2023-03-13T19:11:05.132Z,20.13
2023-03-13T19:13:43.271Z,19.48
2023-03-13T19:16:34.468Z,20.58
2023-03-13T19:19:13.712Z,45.47
2023-03-13T19:21:51.799Z,44.67
2023-03-13T19:24:26.400Z,47.33
2023-03-13T19:27:00.189Z,47.67
2023-03-13T19:29:33.879Z,48.42
2023-03-13T19:32:08.785Z,48.85
2023-03-13T19:34:39.025Z,19.55
2023-03-13T19:37:13.962Z,19.88
2023-03-13T19:39:46.868Z,19.65
2023-03-13T19:42:20.859Z,18.80
2023-03-13T19:44:50.806Z,19.73
2023-03-13T19:47:26.635Z,19.45
2023-03-13T19:49:58.974Z,19.42
2023-03-13T19:52:33.087Z,19.58
2023-03-13T19:55:05.615Z,19.13
2023-03-13T19:57:36.182Z,18.58
2023-03-13T20:00:09.590Z,19.17
2023-03-13T20:02:43.643Z,19.58
2023-03-13T20:05:16.076Z,18.73
2023-03-13T20:07:49.066Z,19.38
2023-03-13T20:10:21.103Z,20.27
2023-03-13T20:12:54.756Z,19.20
2023-03-13T20:15:26.420Z,18.50
2023-03-13T20:17:56.894Z,18.35
2023-03-13T20:20:27.313Z,17.95
2023-03-13T20:22:58.168Z,18.52
2023-03-13T20:25:33.268Z,18.25
2023-03-13T20:28:04.099Z,18.45
2023-03-13T20:30:34.724Z,17.77
2023-03-13T20:33:05.304Z,18.17
2023-03-13T20:35:35.967Z,19.17
2023-03-13T20:38:07.532Z,18.33
2023-03-13T20:40:39.708Z,17.85
2023-03-13T20:43:09.928Z,17.98
2023-03-13T20:45:40.580Z,17.90
2023-03-13T20:48:11.068Z,17.63
2023-03-13T20:50:42.395Z,18.85
2023-03-13T20:53:13.748Z,18.38
2023-03-13T20:55:44.204Z,18.20
2023-03-13T20:58:14.817Z,18.55
2023-03-13T21:00:45.918Z,18.02
2023-03-13T21:03:20.955Z,17.27
2023-03-13T21:05:55.357Z,18.83
2023-03-13T21:08:25.985Z,18.63
2023-03-13T21:10:56.548Z,19.48
2023-03-13T21:13:26.986Z,19.33
2023-03-13T21:16:04.649Z,19.08
2023-03-13T21:18:35.487Z,19.77
2023-03-13T21:21:08.301Z,18.27
2023-03-13T21:23:40.034Z,18.58
2023-03-13T21:26:10.676Z,18.65
2023-03-13T21:28:41.785Z,18.75
2023-03-13T21:31:14.718Z,18.70
2023-03-13T21:33:46.689Z,18.10
2023-03-13T21:36:18.107Z,19.23
2023-03-13T21:38:48.658Z,18.13
2023-03-13T21:41:21.014Z,18.27
2023-03-13T21:43:51.793Z,18.88
2023-03-13T21:46:23.774Z,19.73
2023-03-13T21:48:55.811Z,18.65
2023-03-13T21:51:26.110Z,19.73
2023-03-13T21:53:57.704Z,18.73
2023-03-13T21:56:28.238Z,19.33
2023-03-13T21:58:58.707Z,19.63
2023-03-13T22:01:29.320Z,19.25
2023-03-13T22:03:59.925Z,18.65
2023-03-13T22:06:30.049Z,18.52
2023-03-13T22:09:00.426Z,19.27
2023-03-13T22:11:30.950Z,18.88
2023-03-13T22:14:03.325Z,19.67
2023-03-13T22:16:33.907Z,20.13
2023-03-13T22:19:05.422Z,19.58
2023-03-13T22:21:35.768Z,19.70
2023-03-13T22:24:06.782Z,18.00
2023-03-13T22:26:38.130Z,19.13
2023-03-13T22:29:08.693Z,19.15
2023-03-13T22:31:39.597Z,19.77
2023-03-13T22:34:10.499Z,19.27
2023-03-13T22:36:41.691Z,19.13
2023-03-13T22:39:12.322Z,20.23
2023-03-13T22:41:43.150Z,19.58
2023-03-13T22:44:13.899Z,20.27
2023-03-13T22:46:45.011Z,21.42
2023-03-13T22:49:15.314Z,21.85
2023-03-13T22:51:45.879Z,21.63
2023-03-13T22:54:16.772Z,22.25
2023-03-13T22:56:47.501Z,22.50
2023-03-13T22:59:17.807Z,26.05
2023-03-13T23:01:48.146Z,24.58
2023-03-13T23:04:20.356Z,24.77
2023-03-13T23:06:50.973Z,24.80
2023-03-13T23:09:21.536Z,23.27
2023-03-13T23:11:52.047Z,23.38
2023-03-13T23:14:22.105Z,22.88
2023-03-13T23:16:52.680Z,24.17
2023-03-13T23:19:23.209Z,24.85
2023-03-13T23:21:53.580Z,26.50
2023-03-13T23:24:24.390Z,27.67
2023-03-13T23:26:54.573Z,28.95
2023-03-13T23:29:25.367Z,27.27
2023-03-13T23:31:56.312Z,26.70
2023-03-13T23:34:27.044Z,27.38
2023-03-13T23:36:59.520Z,26.30
2023-03-13T23:39:30.216Z,25.88
2023-03-13T23:42:01.070Z,24.80
2023-03-13T23:44:34.293Z,24.85
2023-03-13T23:47:04.277Z,24.50
2023-03-13T23:49:34.709Z,31.13
2023-03-13T23:52:05.579Z,34.95
2023-03-13T23:54:36.161Z,34.13
2023-03-13T23:57:06.785Z,30.08
2023-03-13T23:59:37.688Z,23.80
